Time;durP1;ratioP1;P1;durP2;ratioP2;P2;SDS_P1;SDS_P2;PMS_P1;PMS_P2;Temp;Humidity;BMP_temperature;BMP_pressure;BME280_temperature;BME280_humidity;BME280_pressure;Samples;Min_cycle;Max_cycle;Signal;HPM_P1;HPM_P2
2022/05/03 00:01:09;;;;;;;0.00;0.00;;;6.60;99.90;;;;;;5021731;28;20065;-68
2022/05/03 00:03:53;;;;;;;0.00;0.00;;;6.70;99.90;;;;;;5021216;28;20143;-66
2022/05/03 00:06:39;;;;;;;0.00;0.00;;;6.60;99.90;;;;;;5021942;28;20079;-66
2022/05/03 00:09:07;;;;;;;0.00;0.00;;;6.60;99.90;;;;;;5021617;28;20072;-66
2022/05/03 00:12:03;;;;;;;0.10;0.10;;;6.60;99.90;;;;;;5021829;28;20101;-67
2022/05/03 00:14:45;;;;;;;0.00;0.00;;;6.50;99.90;;;;;;5020763;28;20054;-65
2022/05/03 00:17:15;;;;;;;0.00;0.00;;;6.50;99.90;;;;;;5021235;28;20058;-67
2022/05/03 00:19:43;;;;;;;0.00;0.00;;;6.40;99.90;;;;;;5021240;28;20377;-68
2022/05/03 00:22:13;;;;;;;0.00;0.00;;;6.30;99.90;;;;;;5004863;28;20049;-67
2022/05/03 00:24:40;;;;;;;0.00;0.00;;;6.40;99.90;;;;;;5022630;28;20049;-65
2022/05/03 00:27:05;;;;;;;0.00;0.00;;;6.20;99.90;;;;;;5020627;28;20042;-68
2022/05/03 00:29:33;;;;;;;0.00;0.00;;;6.20;99.90;;;;;;5021117;28;20521;-67
2022/05/03 00:32:02;;;;;;;0.00;0.00;;;6.10;99.90;;;;;;5021386;28;20050;-68
2022/05/03 00:34:30;;;;;;;0.00;0.00;;;6.10;99.90;;;;;;5038395;28;20087;-65
2022/05/03 00:36:56;;;;;;;0.00;0.00;;;6.00;99.90;;;;;;5039875;28;20980;-68
2022/05/03 00:39:21;;;;;;;0.00;0.00;;;6.00;99.90;;;;;;5037403;28;20033;-68
2022/05/03 00:42:08;;;;;;;0.00;0.00;;;5.90;99.90;;;;;;5040087;28;20399;-68
2022/05/03 00:45:16;;;;;;;0.00;0.00;;;5.90;99.90;;;;;;5037078;28;20384;-65
2022/05/03 00:48:03;;;;;;;0.00;0.00;;;5.80;99.90;;;;;;5032843;28;20056;-68
2022/05/03 00:51:08;;;;;;;0.00;0.00;;;5.90;99.90;;;;;;5037850;28;20045;-67
2022/05/03 00:53:46;;;;;;;0.00;0.00;;;5.80;99.90;;;;;;5038743;28;20063;-65
2022/05/03 00:56:18;;;;;;;0.00;0.00;;;5.80;99.90;;;;;;5037138;28;20050;-65
2022/05/03 00:58:52;;;;;;;0.00;0.00;;;5.80;99.90;;;;;;5037295;28;20055;-66
2022/05/03 01:01:31;;;;;;;0.00;0.00;;;5.70;99.90;;;;;;5038626;28;20033;-68
2022/05/03 01:04:22;;;;;;;0.00;0.00;;;5.70;99.90;;;;;;5038612;28;20048;-66
2022/05/03 01:07:28;;;;;;;0.00;0.00;;;5.70;99.90;;;;;;5026584;22;20049;-66
2022/05/03 01:10:01;;;;;;;0.00;0.00;;;5.70;99.90;;;;;;5017949;28;20752;-69
2022/05/03 01:12:52;;;;;;;0.00;0.00;;;5.70;99.90;;;;;;5017062;28;20069;-67
2022/05/03 01:15:25;;;;;;;0.00;0.00;;;5.70;99.90;;;;;;5017612;28;20045;-68
2022/05/03 01:18:03;;;;;;;0.20;0.20;;;5.70;99.90;;;;;;5017275;28;20052;-68
2022/05/03 01:20:47;;;;;;;0.10;0.10;;;5.70;99.90;;;;;;5017323;28;20041;-68
2022/05/03 01:23:51;;;;;;;0.00;0.00;;;5.80;99.90;;;;;;5017529;28;20435;-65
2022/05/03 01:26:28;;;;;;;0.08;0.08;;;5.80;99.90;;;;;;4989779;28;20145;-67
2022/05/03 01:29:01;;;;;;;0.10;0.10;;;5.80;99.90;;;;;;5020671;28;20116;-67
2022/05/03 01:31:28;;;;;;;0.00;0.00;;;5.80;99.90;;;;;;5019086;28;20069;-68
2022/05/03 01:34:00;;;;;;;0.00;0.00;;;5.70;99.90;;;;;;5021276;28;20060;-67
2022/05/03 01:37:01;;;;;;;0.00;0.00;;;5.60;99.90;;;;;;5021073;28;20046;-68
2022/05/03 01:39:43;;;;;;;0.00;0.00;;;5.60;99.90;;;;;;5010028;28;20067;-65
2022/05/03 01:42:39;;;;;;;0.00;0.00;;;5.50;99.90;;;;;;5020977;28;20053;-66
2022/05/03 01:45:09;;;;;;;0.00;0.00;;;5.50;99.90;;;;;;5018629;28;20562;-67
2022/05/03 01:48:12;;;;;;;0.00;0.00;;;5.50;99.90;;;;;;5009302;28;20046;-69
2022/05/03 01:50:48;;;;;;;0.10;0.10;;;5.50;99.90;;;;;;5000778;28;20393;-67
2022/05/03 01:53:23;;;;;;;0.00;0.00;;;5.50;99.90;;;;;;5000869;28;20594;-67
2022/05/03 01:56:17;;;;;;;0.03;0.03;;;5.60;99.90;;;;;;4999115;28;20085;-66
2022/05/03 01:59:15;;;;;;;0.10;0.10;;;5.50;99.90;;;;;;5000610;28;20050;-65
2022/05/03 02:01:40;;;;;;;0.00;0.00;;;5.50;99.90;;;;;;4976883;28;20054;-65
2022/05/03 02:04:47;;;;;;;0.03;0.03;;;5.50;99.90;;;;;;5001015;28;20133;-65
2022/05/03 02:07:32;;;;;;;0.00;0.00;;;5.50;99.90;;;;;;5000086;28;20052;-65
2022/05/03 02:10:16;;;;;;;0.00;0.00;;;5.50;99.90;;;;;;4999132;28;20052;-65
2022/05/03 02:12:49;;;;;;;0.00;0.00;;;5.50;99.90;;;;;;5000346;28;21038;-66
2022/05/03 02:15:22;;;;;;;0.00;0.00;;;5.50;99.90;;;;;;4998026;28;20049;-63
2022/05/03 02:18:03;;;;;;;0.00;0.00;;;5.50;99.90;;;;;;5000344;28;20053;-65
2022/05/03 02:20:46;;;;;;;0.10;0.10;;;5.40;99.90;;;;;;4999115;28;20409;-66
2022/05/03 02:23:39;;;;;;;0.00;0.00;;;5.40;99.90;;;;;;5000368;28;20042;-65
2022/05/03 02:26:37;;;;;;;0.00;0.00;;;5.40;99.90;;;;;;5000504;28;20041;-65
2022/05/03 02:29:13;;;;;;;0.00;0.00;;;5.40;99.90;;;;;;4975751;28;20050;-66
2022/05/03 02:31:46;;;;;;;0.05;0.05;;;5.40;99.90;;;;;;5000121;28;20107;-65
2022/05/03 02:34:33;;;;;;;0.00;0.00;;;5.40;99.90;;;;;;4999514;28;20046;-66
2022/05/03 02:37:20;;;;;;;0.00;0.00;;;5.40;99.90;;;;;;4999829;28;20046;-65
2022/05/03 02:40:12;;;;;;;0.10;0.10;;;5.40;99.90;;;;;;4998743;28;20092;-66
2022/05/03 02:42:39;;;;;;;0.32;0.00;;;5.30;99.90;;;;;;5000128;28;20037;-65
2022/05/03 02:45:06;;;;;;;0.00;0.00;;;5.30;99.90;;;;;;5002012;28;20053;-65
2022/05/03 02:47:43;;;;;;;0.28;0.10;;;5.20;99.90;;;;;;5007892;28;20495;-66
2022/05/03 02:50:18;;;;;;;0.00;0.00;;;5.20;99.90;;;;;;5000704;28;20046;-67
2022/05/03 02:52:57;;;;;;;0.00;0.00;;;5.10;99.90;;;;;;5000451;28;20045;-66
2022/05/03 02:55:38;;;;;;;0.00;0.00;;;5.10;99.90;;;;;;4999738;28;20105;-65
2022/05/03 02:58:24;;;;;;;0.00;0.00;;;5.10;99.90;;;;;;4999815;28;20049;-65
2022/05/03 03:04:03;;;;;;;0.00;0.00;;;5.10;99.90;;;;;;4999999;28;20509;-68
2022/05/03 03:06:33;;;;;;;0.00;0.00;;;5.10;99.90;;;;;;4999049;28;20066;-67
2022/05/03 03:09:01;;;;;;;0.00;0.00;;;5.10;99.90;;;;;;5000251;28;20100;-67
2022/05/03 03:11:33;;;;;;;0.00;0.00;;;5.10;99.90;;;;;;4999665;28;20522;-68
2022/05/03 03:14:21;;;;;;;0.00;0.00;;;5.10;99.90;;;;;;4998155;28;20088;-69
2022/05/03 03:17:02;;;;;;;0.00;0.00;;;5.10;99.90;;;;;;4999022;28;20072;-68
2022/05/03 03:19:43;;;;;;;0.30;0.25;;;5.10;99.90;;;;;;5001348;28;20054;-67
2022/05/03 03:22:13;;;;;;;0.00;0.00;;;5.10;99.90;;;;;;5003906;28;20581;-67
2022/05/03 03:24:40;;;;;;;0.00;0.00;;;5.20;99.90;;;;;;5002284;28;20112;-67
2022/05/03 03:27:09;;;;;;;0.00;0.00;;;5.30;99.90;;;;;;5003922;28;20104;-68
2022/05/03 03:29:37;;;;;;;0.00;0.00;;;5.40;99.90;;;;;;5003328;28;20042;-68
2022/05/03 03:32:06;;;;;;;0.08;0.00;;;5.50;99.90;;;;;;5002309;28;20076;-67
2022/05/03 03:34:33;;;;;;;0.00;0.00;;;5.60;99.90;;;;;;5003124;28;20096;-67
2022/05/03 03:37:01;;;;;;;0.00;0.00;;;5.80;99.90;;;;;;5002952;28;20049;-66
2022/05/03 03:39:30;;;;;;;0.10;0.10;;;5.70;99.90;;;;;;5002317;28;20100;-66
2022/05/03 03:41:58;;;;;;;0.00;0.00;;;5.70;99.90;;;;;;5003579;28;20042;-66
2022/05/03 03:44:24;;;;;;;0.00;0.00;;;5.80;99.90;;;;;;5002522;28;20058;-66
2022/05/03 03:46:50;;;;;;;0.00;0.00;;;5.80;99.90;;;;;;5018374;28;20049;-66
2022/05/03 03:49:16;;;;;;;0.00;0.00;;;5.90;99.90;;;;;;5002781;28;20913;-66
2022/05/03 03:51:42;;;;;;;0.00;0.00;;;5.90;99.90;;;;;;5001565;28;20039;-66
2022/05/03 03:54:08;;;;;;;0.00;0.00;;;5.90;99.90;;;;;;5003131;28;20038;-67
2022/05/03 03:56:34;;;;;;;0.00;0.00;;;5.90;99.90;;;;;;5000437;28;20048;-65
2022/05/03 03:59:02;;;;;;;0.10;0.00;;;5.90;99.90;;;;;;5002370;28;20053;-67
2022/05/03 04:01:27;;;;;;;0.00;0.00;;;5.90;99.90;;;;;;5001581;28;20132;-65
2022/05/03 04:03:54;;;;;;;0.00;0.00;;;5.80;99.90;;;;;;5002556;28;20137;-67
2022/05/03 04:06:20;;;;;;;0.00;0.00;;;5.90;99.90;;;;;;5001899;28;20089;-65
2022/05/03 04:08:45;;;;;;;0.00;0.00;;;5.80;99.90;;;;;;5018264;28;20698;-66
2022/05/03 04:11:17;;;;;;;0.03;0.03;;;5.80;99.90;;;;;;5002025;28;20779;-65
2022/05/03 04:13:44;;;;;;;0.00;0.00;;;5.90;99.90;;;;;;5001647;28;20046;-66
2022/05/03 04:16:10;;;;;;;4.00;0.47;;;5.90;99.90;;;;;;5001939;28;20133;-67
2022/05/03 04:18:44;;;;;;;0.00;0.00;;;6.00;99.90;;;;;;5001176;28;20129;-66
2022/05/03 04:21:18;;;;;;;0.00;0.00;;;6.00;99.90;;;;;;5000092;28;20077;-66
2022/05/03 04:23:45;;;;;;;0.00;0.00;;;6.10;99.90;;;;;;5000760;28;20740;-67
2022/05/03 04:26:11;;;;;;;0.10;0.10;;;6.20;99.90;;;;;;5002211;28;20041;-66
2022/05/03 04:28:38;;;;;;;0.00;0.00;;;6.20;99.90;;;;;;5001958;28;20053;-66
2022/05/03 04:31:04;;;;;;;0.60;0.45;;;6.30;99.90;;;;;;5000327;28;20096;-66
2022/05/03 04:33:30;;;;;;;0.10;0.10;;;6.40;99.90;;;;;;5002120;28;20049;-66
2022/05/03 04:35:56;;;;;;;0.00;0.00;;;6.40;99.90;;;;;;5001432;28;20049;-66
2022/05/03 04:38:21;;;;;;;0.00;0.00;;;6.40;99.90;;;;;;5001967;28;20073;-66
2022/05/03 04:40:47;;;;;;;0.00;0.00;;;6.50;99.90;;;;;;5001741;28;20052;-67
2022/05/03 04:43:13;;;;;;;0.00;0.00;;;6.60;99.90;;;;;;5002177;28;20049;-66
2022/05/03 04:45:38;;;;;;;0.00;0.00;;;6.70;99.90;;;;;;5003346;28;20038;-67
2022/05/03 04:48:05;;;;;;;0.00;0.00;;;6.60;99.90;;;;;;5010432;28;20404;-66
2022/05/03 04:50:31;;;;;;;0.00;0.00;;;6.70;99.90;;;;;;5016455;28;20045;-66
2022/05/03 04:52:57;;;;;;;0.10;0.10;;;6.70;99.90;;;;;;5000504;28;20046;-66
2022/05/03 04:55:23;;;;;;;0.00;0.00;;;6.70;99.90;;;;;;5000819;28;20684;-66
2022/05/03 04:57:49;;;;;;;0.00;0.00;;;6.70;99.90;;;;;;5001975;28;20608;-66
2022/05/03 05:00:16;;;;;;;0.00;0.00;;;6.80;99.90;;;;;;5000689;28;20041;-66
2022/05/03 05:02:41;;;;;;;0.10;0.05;;;6.90;99.90;;;;;;5000833;28;20048;-66
2022/05/03 05:05:07;;;;;;;0.00;0.00;;;6.90;99.90;;;;;;5001993;28;20132;-67
2022/05/03 05:07:33;;;;;;;0.00;0.00;;;6.90;99.90;;;;;;5000948;28;20693;-68
2022/05/03 05:12:43;;;;;;;0.00;0.00;;;6.90;99.90;;;;;;5000400;28;20612;-66
2022/05/03 05:15:09;;;;;;;0.00;0.00;;;7.00;99.90;;;;;;5001138;28;20042;-66
2022/05/03 05:17:35;;;;;;;0.00;0.00;;;7.00;99.90;;;;;;5000821;28;20141;-66
2022/05/03 05:20:00;;;;;;;0.00;0.00;;;7.20;99.90;;;;;;5001415;28;20138;-66
2022/05/03 05:22:26;;;;;;;0.00;0.00;;;7.20;99.90;;;;;;5000830;28;20057;-67
2022/05/03 05:24:52;;;;;;;0.00;0.00;;;7.10;99.90;;;;;;5000064;28;20053;-66
2022/05/03 05:27:17;;;;;;;0.00;0.00;;;7.20;99.90;;;;;;5000331;28;20045;-66
2022/05/03 05:29:43;;;;;;;0.00;0.00;;;7.20;99.90;;;;;;5000971;28;20194;-66
2022/05/03 05:32:09;;;;;;;0.00;0.00;;;7.30;99.90;;;;;;5001266;28;20046;-67
2022/05/03 05:34:35;;;;;;;0.00;0.00;;;7.30;99.90;;;;;;5001260;28;20037;-67
2022/05/03 05:37:01;;;;;;;0.00;0.00;;;7.40;99.90;;;;;;5000424;28;20631;-68
2022/05/03 05:39:27;;;;;;;0.00;0.00;;;7.40;99.90;;;;;;5000551;28;20076;-67
2022/05/03 05:41:55;;;;;;;0.00;0.00;;;7.50;99.90;;;;;;4999867;28;20046;-67
2022/05/03 05:44:21;;;;;;;0.00;0.00;;;7.60;99.90;;;;;;4999545;28;20052;-67
2022/05/03 05:46:46;;;;;;;0.10;0.10;;;7.70;99.90;;;;;;5011225;28;20136;-67
2022/05/03 05:49:12;;;;;;;0.00;0.00;;;7.80;99.90;;;;;;5000779;28;20041;-67
2022/05/03 05:51:37;;;;;;;0.10;0.10;;;7.90;99.90;;;;;;5001072;28;20685;-67
2022/05/03 05:54:04;;;;;;;0.00;0.00;;;7.90;99.90;;;;;;5000133;28;20046;-68
2022/05/03 05:56:30;;;;;;;0.00;0.00;;;8.00;99.90;;;;;;5000367;28;20062;-67
2022/05/03 05:58:56;;;;;;;0.00;0.00;;;8.10;99.90;;;;;;4999272;28;20046;-67
2022/05/03 06:01:26;;;;;;;0.00;0.00;;;8.10;99.90;;;;;;4997315;28;20046;-67
2022/05/03 06:03:52;;;;;;;0.00;0.00;;;8.10;99.90;;;;;;5000808;28;20114;-67
2022/05/03 06:06:17;;;;;;;0.00;0.00;;;8.20;99.90;;;;;;4998904;28;20144;-67
2022/05/03 06:08:43;;;;;;;0.00;0.00;;;8.20;99.90;;;;;;5000473;28;20050;-67
2022/05/03 06:11:09;;;;;;;0.00;0.00;;;8.30;99.90;;;;;;5000191;28;20038;-68
2022/05/03 06:13:35;;;;;;;0.00;0.00;;;8.30;99.90;;;;;;5000398;28;20117;-67
2022/05/03 06:16:09;;;;;;;0.00;0.00;;;8.40;99.90;;;;;;5000203;28;20044;-67
2022/05/03 06:18:35;;;;;;;0.00;0.00;;;8.40;99.90;;;;;;4998757;28;20596;-67
2022/05/03 06:21:03;;;;;;;0.00;0.00;;;8.40;99.90;;;;;;4999976;28;20046;-67
2022/05/03 06:23:29;;;;;;;0.00;0.00;;;8.50;99.90;;;;;;5000345;28;20549;-67
2022/05/03 06:25:54;;;;;;;0.00;0.00;;;8.60;99.90;;;;;;4999754;28;20117;-67
2022/05/03 06:28:20;;;;;;;0.00;0.00;;;8.50;99.90;;;;;;4999997;28;20123;-67
2022/05/03 06:30:46;;;;;;;0.00;0.00;;;8.50;99.90;;;;;;4998131;28;20037;-68
2022/05/03 06:33:11;;;;;;;0.00;0.00;;;8.60;99.90;;;;;;4999715;28;20042;-68
2022/05/03 06:35:37;;;;;;;0.00;0.00;;;9.00;99.90;;;;;;4999839;28;20088;-67
2022/05/03 06:38:03;;;;;;;0.00;0.00;;;8.70;99.90;;;;;;4999971;28;20049;-67
2022/05/03 06:40:29;;;;;;;0.00;0.00;;;8.70;99.90;;;;;;5000039;28;20042;-69
2022/05/03 06:42:54;;;;;;;0.00;0.00;;;8.80;99.90;;;;;;5000177;28;20075;-67
2022/05/03 06:45:20;;;;;;;0.00;0.00;;;8.80;99.90;;;;;;5000176;28;20037;-67
2022/05/03 06:47:48;;;;;;;0.00;0.00;;;8.90;99.90;;;;;;5008345;28;20050;-67
2022/05/03 06:50:14;;;;;;;0.00;0.00;;;8.90;99.90;;;;;;5000050;28;20243;-67
2022/05/03 06:52:39;;;;;;;0.00;0.00;;;8.90;99.90;;;;;;5014713;28;20540;-65
2022/05/03 06:55:06;;;;;;;0.00;0.00;;;9.00;99.90;;;;;;5004500;28;20038;-67
2022/05/03 06:57:32;;;;;;;0.00;0.00;;;9.10;99.90;;;;;;5004033;28;20046;-67
2022/05/03 07:00:01;;;;;;;0.00;0.00;;;9.10;99.90;;;;;;5003089;28;20741;-68
2022/05/03 07:02:29;;;;;;;0.00;0.00;;;9.10;99.90;;;;;;5003355;28;20096;-67
2022/05/03 07:04:55;;;;;;;0.00;0.00;;;9.50;99.90;;;;;;5003655;28;20037;-66
2022/05/03 07:07:21;;;;;;;0.00;0.00;;;9.20;99.90;;;;;;5003560;28;20586;-67
2022/05/03 07:09:46;;;;;;;0.00;0.00;;;9.10;99.90;;;;;;5003159;28;20550;-66
2022/05/03 07:12:12;;;;;;;0.00;0.00;;;9.10;99.90;;;;;;5003504;28;20038;-66
2022/05/03 07:14:37;;;;;;;0.00;0.00;;;9.10;99.90;;;;;;5003675;28;20481;-67
2022/05/03 07:17:04;;;;;;;0.00;0.00;;;9.10;99.90;;;;;;5003422;28;20048;-65
2022/05/03 07:24:59;;;;;;;0.00;0.00;;;9.00;99.90;;;;;;5003553;28;20437;-66
2022/05/03 07:27:24;;;;;;;0.00;0.00;;;9.10;99.90;;;;;;5003116;28;20037;-65
2022/05/03 07:29:50;;;;;;;0.00;0.00;;;9.20;99.90;;;;;;5001002;28;20139;-65
2022/05/03 07:32:16;;;;;;;0.00;0.00;;;9.10;99.90;;;;;;5002486;28;20511;-65
2022/05/03 07:34:41;;;;;;;0.00;0.00;;;9.10;99.90;;;;;;5003006;28;20042;-67
2022/05/03 07:37:07;;;;;;;0.00;0.00;;;9.20;99.90;;;;;;5003410;28;20042;-64
2022/05/03 07:39:32;;;;;;;0.00;0.00;;;9.40;99.90;;;;;;5002453;28;20110;-67
2022/05/03 07:41:58;;;;;;;0.00;0.00;;;9.40;99.90;;;;;;5012326;28;20475;-65
2022/05/03 07:44:24;;;;;;;0.00;0.00;;;9.30;99.90;;;;;;5021680;28;20136;-62
2022/05/03 07:46:49;;;;;;;0.10;0.10;;;9.40;99.90;;;;;;5015086;28;20041;-65
2022/05/03 07:49:15;;;;;;;0.00;0.00;;;9.40;99.90;;;;;;5001737;28;20045;-65
2022/05/03 07:51:44;;;;;;;0.00;0.00;;;9.40;99.90;;;;;;5003381;28;20053;-64
2022/05/03 07:54:09;;;;;;;0.00;0.00;;;9.40;99.90;;;;;;5002931;28;20088;-62
2022/05/03 07:56:36;;;;;;;0.00;0.00;;;9.40;99.90;;;;;;5001814;28;20049;-67
2022/05/03 07:59:03;;;;;;;0.00;0.00;;;9.50;99.90;;;;;;5002257;28;20092;-66
2022/05/03 08:01:29;;;;;;;0.00;0.00;;;9.60;99.90;;;;;;5001717;28;20057;-66
2022/05/03 08:03:54;;;;;;;0.00;0.00;;;9.70;99.90;;;;;;5002960;28;20054;-66
2022/05/03 08:06:23;;;;;;;0.00;0.00;;;9.80;99.90;;;;;;5001502;28;20058;-66
2022/05/03 08:08:48;;;;;;;0.00;0.00;;;9.70;99.90;;;;;;5002963;28;20054;-66
2022/05/03 08:11:14;;;;;;;0.00;0.00;;;9.80;99.90;;;;;;5002322;28;20388;-67
2022/05/03 08:13:40;;;;;;;0.00;0.00;;;9.80;99.90;;;;;;5002871;28;20124;-66
2022/05/03 08:16:16;;;;;;;0.00;0.00;;;9.90;99.90;;;;;;4999607;28;20042;-66
2022/05/03 08:18:42;;;;;;;0.00;0.00;;;10.00;99.90;;;;;;5002608;28;20060;-66
2022/05/03 08:21:07;;;;;;;0.00;0.00;;;10.00;99.90;;;;;;5002420;28;20041;-65
2022/05/03 08:23:35;;;;;;;0.00;0.00;;;10.00;99.90;;;;;;5001369;28;20129;-66
2022/05/03 08:26:01;;;;;;;0.00;0.00;;;10.10;99.90;;;;;;5000761;28;20358;-66
2022/05/03 08:28:26;;;;;;;0.00;0.00;;;10.10;99.90;;;;;;5002391;28;20504;-66
2022/05/03 08:30:52;;;;;;;0.00;0.00;;;10.10;99.90;;;;;;5000572;28;20054;-66
2022/05/03 08:33:18;;;;;;;0.00;0.00;;;10.10;99.90;;;;;;5002190;28;20049;-66
2022/05/03 08:35:43;;;;;;;0.00;0.00;;;10.10;99.90;;;;;;5002108;28;20074;-68
2022/05/03 08:43:38;;;;;;;0.00;0.00;;;10.40;99.90;;;;;;5015461;28;20423;-66
2022/05/03 08:46:06;;;;;;;0.00;0.00;;;10.40;99.90;;;;;;5014054;28;20137;-66
2022/05/03 08:48:34;;;;;;;0.00;0.00;;;10.50;99.90;;;;;;5016543;28;20048;-66
2022/05/03 08:51:00;;;;;;;0.00;0.00;;;10.50;99.90;;;;;;5022210;28;20191;-66
2022/05/03 08:53:27;;;;;;;0.00;0.00;;;10.40;99.90;;;;;;5019825;28;20322;-66
2022/05/03 08:55:53;;;;;;;0.00;0.00;;;10.40;99.90;;;;;;5020255;28;20138;-65
2022/05/03 08:58:19;;;;;;;0.00;0.00;;;10.50;99.90;;;;;;5019344;28;20669;-65
2022/05/03 09:00:45;;;;;;;0.00;0.00;;;10.60;99.90;;;;;;5020290;28;20038;-66
2022/05/03 09:03:12;;;;;;;0.00;0.00;;;10.60;99.90;;;;;;5011660;28;20059;-63
2022/05/03 09:05:39;;;;;;;0.75;0.75;;;10.60;99.90;;;;;;5019956;28;20285;-65
2022/05/03 09:08:08;;;;;;;0.00;0.00;;;10.70;99.90;;;;;;5019909;28;20049;-65
2022/05/03 09:10:36;;;;;;;0.00;0.00;;;10.80;99.90;;;;;;5019350;28;20068;-65
2022/05/03 09:13:18;;;;;;;0.00;0.00;;;10.90;99.90;;;;;;5020733;28;20045;-65
2022/05/03 09:15:46;;;;;;;0.00;0.00;;;11.30;99.90;;;;;;5017677;28;20333;-65
2022/05/03 09:18:23;;;;;;;0.00;0.00;;;11.20;99.90;;;;;;5020404;28;20527;-69
2022/05/03 09:23:49;;;;;;;0.00;0.00;;;11.30;99.90;;;;;;5020761;28;20136;-66
2022/05/03 09:26:23;;;;;;;0.00;0.00;;;11.20;99.90;;;;;;5018772;28;20124;-64
2022/05/03 09:28:55;;;;;;;0.00;0.00;;;11.30;99.90;;;;;;5018433;28;20045;-65
2022/05/03 09:31:39;;;;;;;0.00;0.00;;;11.30;99.90;;;;;;5019422;28;20049;-65
2022/05/03 09:34:26;;;;;;;0.00;0.00;;;11.40;99.90;;;;;;5019990;28;20369;-65
2022/05/03 09:36:56;;;;;;;0.00;0.00;;;11.50;99.90;;;;;;5019763;28;20057;-66
2022/05/03 09:39:26;;;;;;;0.00;0.00;;;11.40;99.90;;;;;;5017608;28;20060;-65
2022/05/03 09:42:15;;;;;;;0.00;0.00;;;11.40;99.90;;;;;;5020477;28;20057;-65
2022/05/03 09:44:50;;;;;;;0.00;0.00;;;11.30;99.90;;;;;;5018189;28;20107;-66
2022/05/03 09:47:16;;;;;;;0.00;0.00;;;11.30;99.90;;;;;;5009631;28;20088;-66
2022/05/03 09:49:43;;;;;;;0.00;0.00;;;11.40;99.90;;;;;;5018562;28;20660;-66
2022/05/03 09:52:22;;;;;;;0.00;0.00;;;11.40;99.90;;;;;;5020746;28;20084;-65
2022/05/03 09:54:49;;;;;;;0.00;0.00;;;11.60;99.90;;;;;;5020067;28;20664;-65
2022/05/03 09:57:26;;;;;;;0.00;0.00;;;11.90;99.90;;;;;;5019990;28;20388;-65
2022/05/03 09:59:53;;;;;;;0.00;0.00;;;12.00;99.90;;;;;;5018946;28;20111;-65
2022/05/03 10:02:21;;;;;;;0.00;0.00;;;11.90;99.90;;;;;;5019610;28;20050;-65
2022/05/03 10:04:48;;;;;;;0.00;0.00;;;11.90;99.90;;;;;;5020074;28;20049;-64
2022/05/03 10:07:14;;;;;;;0.00;0.00;;;12.00;99.90;;;;;;5019132;28;20104;-65
2022/05/03 10:09:45;;;;;;;0.00;0.00;;;12.00;99.90;;;;;;5019965;28;20065;-64
2022/05/03 10:12:12;;;;;;;0.00;0.00;;;12.10;99.90;;;;;;5018639;28;20475;-64
2022/05/03 10:14:38;;;;;;;0.00;0.00;;;12.30;99.90;;;;;;5019207;28;20044;-65
2022/05/03 10:22:42;;;;;;;0.00;0.00;;;12.90;99.90;;;;;;5020044;28;20467;-65
2022/05/03 10:25:08;;;;;;;0.00;0.00;;;12.50;99.90;;;;;;5019917;28;20077;-67
2022/05/03 10:27:57;;;;;;;0.00;0.00;;;12.60;99.90;;;;;;5018188;28;20136;-64
2022/05/03 10:30:28;;;;;;;0.00;0.00;;;12.60;99.90;;;;;;5019173;28;20206;-64
2022/05/03 10:33:23;;;;;;;0.00;0.00;;;12.70;99.90;;;;;;5019626;28;20121;-65
2022/05/03 10:35:50;;;;;;;0.00;0.00;;;12.90;99.90;;;;;;5019935;28;20056;-68
2022/05/03 10:38:38;;;;;;;0.00;0.00;;;13.40;99.90;;;;;;5018972;28;20055;-78
2022/05/03 10:41:05;;;;;;;0.00;0.00;;;13.60;99.90;;;;;;5020200;28;20041;-73
2022/05/03 10:43:35;;;;;;;0.00;0.00;;;13.60;99.90;;;;;;5019347;28;20107;-74
2022/05/03 10:46:13;;;;;;;0.00;0.00;;;13.80;99.90;;;;;;5013542;28;20052;-73
2022/05/03 10:48:43;;;;;;;0.00;0.00;;;14.00;99.90;;;;;;5004045;28;20405;-74
2022/05/03 10:51:13;;;;;;;0.00;0.00;;;14.10;99.90;;;;;;4999947;28;20050;-75
2022/05/03 10:53:42;;;;;;;0.00;0.00;;;14.30;99.90;;;;;;5000324;28;20042;-72
2022/05/03 10:56:12;;;;;;;0.00;0.00;;;14.40;99.90;;;;;;4999442;28;20050;-73
2022/05/03 10:58:42;;;;;;;0.00;0.00;;;14.40;99.90;;;;;;4998663;28;20056;-72
2022/05/03 11:01:21;;;;;;;0.00;0.00;;;14.50;99.90;;;;;;5000014;28;20042;-72
2022/05/03 11:03:47;;;;;;;0.00;0.00;;;14.50;99.90;;;;;;4999407;28;20041;-71
2022/05/03 11:06:19;;;;;;;0.00;0.00;;;14.50;99.90;;;;;;4999936;28;20050;-72
2022/05/03 11:11:53;;;;;;;0.00;0.00;;;14.50;99.90;;;;;;4999594;28;20053;-72
2022/05/03 11:14:22;;;;;;;0.00;0.00;;;15.00;99.90;;;;;;4999484;28;20136;-71
2022/05/03 11:17:08;;;;;;;0.00;0.00;;;15.20;99.90;;;;;;5000062;28;20054;-74
2022/05/03 11:19:58;;;;;;;0.20;0.20;;;15.30;99.90;;;;;;5000402;28;20042;-75
2022/05/03 11:22:29;;;;;;;0.00;0.00;;;15.20;99.90;;;;;;5000039;28;20473;-72
2022/05/03 11:24:57;;;;;;;0.00;0.00;;;15.30;99.90;;;;;;5000318;28;20092;-72
2022/05/03 11:27:23;;;;;;;0.00;0.00;;;15.50;99.90;;;;;;4998665;28;20042;-67
2022/05/03 11:29:54;;;;;;;0.00;0.00;;;15.30;99.90;;;;;;4999379;28;20081;-73
2022/05/03 11:32:32;;;;;;;0.00;0.00;;;14.90;99.90;;;;;;4999350;28;20049;-65
2022/05/03 11:35:02;;;;;;;0.00;0.00;;;15.20;99.90;;;;;;4998158;28;20050;-64
2022/05/03 11:37:28;;;;;;;0.00;0.00;;;15.50;99.90;;;;;;4998365;28;20072;-60
2022/05/03 11:40:04;;;;;;;0.00;0.00;;;15.90;99.90;;;;;;5001740;28;20489;-64
2022/05/03 11:42:36;;;;;;;0.00;0.00;;;16.40;99.90;;;;;;5002189;28;20053;-62
2022/05/03 11:45:02;;;;;;;0.00;0.00;;;16.20;99.90;;;;;;5003811;28;20492;-65
2022/05/03 11:47:29;;;;;;;0.00;0.00;;;16.20;99.90;;;;;;5011792;28;20550;-64
2022/05/03 11:49:56;;;;;;;0.00;0.00;;;16.20;99.90;;;;;;5002573;28;20085;-63
2022/05/03 11:57:54;;;;;;;0.10;0.10;;;16.10;99.90;;;;;;5003308;28;20096;-64
2022/05/03 12:00:21;;;;;;;0.00;0.00;;;16.10;99.90;;;;;;5002423;28;20053;-63
2022/05/03 12:02:47;;;;;;;0.00;0.00;;;15.70;99.90;;;;;;5002691;28;20097;-64
2022/05/03 12:05:20;;;;;;;0.00;0.00;;;15.50;99.90;;;;;;5002306;28;20492;-63
2022/05/03 12:07:50;;;;;;;0.00;0.00;;;15.60;99.90;;;;;;5002544;28;20054;-63
2022/05/03 12:10:30;;;;;;;0.00;0.00;;;15.40;99.90;;;;;;5002091;28;20049;-63
2022/05/03 12:13:13;;;;;;;0.00;0.00;;;15.30;99.90;;;;;;5002903;28;20054;-64
2022/05/03 12:15:46;;;;;;;0.00;0.00;;;15.00;99.90;;;;;;5002868;28;20042;-64
2022/05/03 12:18:16;;;;;;;0.00;0.00;;;15.20;99.90;;;;;;5002626;28;20041;-63
2022/05/03 12:20:59;;;;;;;0.00;0.00;;;15.00;99.90;;;;;;5001953;28;20049;-64
2022/05/03 12:23:37;;;;;;;0.00;0.00;;;15.20;99.90;;;;;;5002612;28;20381;-63
2022/05/03 12:26:25;;;;;;;0.00;0.00;;;15.40;99.90;;;;;;5002073;28;20034;-64
2022/05/03 12:28:59;;;;;;;0.00;0.00;;;15.40;99.90;;;;;;5000409;28;20081;-64
2022/05/03 12:31:37;;;;;;;0.00;0.00;;;15.30;99.90;;;;;;5001612;28;20054;-63
2022/05/03 12:34:23;;;;;;;0.00;0.00;;;15.30;99.90;;;;;;5002605;28;20085;-63
2022/05/03 12:36:49;;;;;;;0.00;0.00;;;15.60;99.90;;;;;;5001776;28;20046;-63
2022/05/03 12:39:16;;;;;;;0.00;0.00;;;15.70;99.90;;;;;;5002064;28;20053;-63
2022/05/03 12:41:45;;;;;;;0.00;0.00;;;15.70;99.90;;;;;;5002060;28;20104;-63
2022/05/03 12:44:13;;;;;;;0.00;0.00;;;15.60;99.90;;;;;;5000651;28;20081;-63
2022/05/03 12:46:40;;;;;;;0.00;0.00;;;15.80;99.90;;;;;;5013643;28;20045;-63
2022/05/03 12:49:12;;;;;;;0.00;0.00;;;16.10;99.90;;;;;;5002587;28;20136;-63
2022/05/03 12:51:40;;;;;;;0.00;0.00;;;16.30;99.90;;;;;;5000711;28;20381;-63
2022/05/03 12:54:07;;;;;;;0.00;0.00;;;16.30;99.90;;;;;;5002668;28;20060;-64
2022/05/03 12:59:18;;;;;;;0.00;0.00;;;16.40;99.90;;;;;;4999565;28;20132;-64
2022/05/03 13:01:46;;;;;;;0.00;0.00;;;16.30;99.90;;;;;;5000712;28;20124;-64
2022/05/03 13:04:12;;;;;;;0.00;0.00;;;16.50;99.90;;;;;;5001809;28;20045;-63
2022/05/03 13:06:38;;;;;;;0.00;0.00;;;16.30;99.90;;;;;;5004278;28;20428;-63
2022/05/03 13:09:04;;;;;;;0.10;0.10;;;16.00;99.90;;;;;;5008323;28;20049;-64
2022/05/03 13:11:31;;;;;;;0.00;0.00;;;15.70;99.90;;;;;;5007064;28;20053;-63
2022/05/03 13:13:57;;;;;;;0.00;0.00;;;15.80;99.90;;;;;;5007083;28;20129;-63
2022/05/03 13:16:22;;;;;;;0.00;0.00;;;15.80;99.90;;;;;;5008005;28;20041;-63
2022/05/03 13:18:48;;;;;;;0.00;0.00;;;15.90;99.90;;;;;;5007981;28;20076;-63
2022/05/03 13:21:14;;;;;;;0.00;0.00;;;15.80;99.90;;;;;;5007579;28;20526;-63
2022/05/03 13:23:40;;;;;;;0.00;0.00;;;15.60;99.90;;;;;;5006865;28;20078;-63
2022/05/03 13:26:05;;;;;;;0.00;0.00;;;15.40;99.90;;;;;;5008478;28;20480;-64
2022/05/03 13:28:31;;;;;;;0.00;0.00;;;15.50;99.90;;;;;;5005167;28;20038;-63
2022/05/03 13:30:57;;;;;;;0.00;0.00;;;15.40;99.90;;;;;;5007684;28;20449;-64
2022/05/03 13:33:23;;;;;;;0.00;0.00;;;15.40;99.90;;;;;;5006649;28;20132;-63
2022/05/03 13:41:19;;;;;;;0.00;0.00;;;15.30;99.90;;;;;;5007892;28;20046;-63
2022/05/03 13:43:46;;;;;;;0.00;0.00;;;15.40;99.90;;;;;;5006405;28;20420;-64
2022/05/03 13:46:13;;;;;;;0.00;0.00;;;15.20;99.90;;;;;;5006531;28;20500;-63
2022/05/03 13:48:38;;;;;;;0.00;0.00;;;15.00;99.90;;;;;;5008116;28;20120;-63
2022/05/03 13:51:05;;;;;;;0.00;0.00;;;15.00;99.90;;;;;;5007058;28;20457;-64
2022/05/03 13:53:31;;;;;;;0.00;0.00;;;14.90;99.90;;;;;;5006119;28;20076;-63
2022/05/03 13:55:56;;;;;;;0.00;0.00;;;15.10;99.90;;;;;;5007895;28;20042;-64